createdAt,value
2018-01-15T00:01:47.118Z,5.23
2018-01-15T00:04:48.089Z,4.87
2018-01-15T00:07:49.117Z,5.00
2018-01-15T00:10:50.079Z,5.17
2018-01-15T00:13:51.118Z,4.97
2018-01-15T00:16:52.163Z,4.93
2018-01-15T00:19:53.115Z,5.40
2018-01-15T00:22:54.188Z,5.20
2018-01-15T00:25:55.126Z,4.80
2018-01-15T00:28:56.076Z,4.73
2018-01-15T00:31:57.059Z,5.00
2018-01-15T00:34:58.075Z,4.83
2018-01-15T00:37:59.078Z,4.47
2018-01-15T00:41:00.124Z,4.60
2018-01-15T00:44:02.147Z,4.93
2018-01-15T00:47:03.139Z,4.60
2018-01-15T00:50:04.144Z,5.07
2018-01-15T00:53:05.175Z,4.93
2018-01-15T00:56:06.187Z,5.10
2018-01-15T00:59:07.174Z,4.63
2018-01-15T01:02:08.195Z,4.80
2018-01-15T01:05:10.198Z,4.73
2018-01-15T01:08:11.126Z,4.93
2018-01-15T01:11:12.107Z,4.58
2018-01-15T01:14:13.149Z,4.30
2018-01-15T01:17:14.147Z,4.60
2018-01-15T01:20:15.182Z,4.93
2018-01-15T01:23:16.147Z,4.60
2018-01-15T01:26:17.363Z,4.43
2018-01-15T01:29:18.283Z,4.77
2018-01-15T01:32:19.310Z,5.03
2018-01-15T01:35:20.327Z,4.60
2018-01-15T01:38:21.313Z,4.90
2018-01-15T01:41:22.240Z,4.47
2018-01-15T01:44:23.215Z,4.63
2018-01-15T01:47:24.216Z,4.43
2018-01-15T01:50:25.212Z,4.63
2018-01-15T01:53:26.263Z,4.93
2018-01-15T01:56:27.219Z,4.37
2018-01-15T01:59:28.176Z,4.17
2018-01-15T02:02:29.183Z,4.43
2018-01-15T02:05:31.174Z,4.80
2018-01-15T02:08:33.187Z,4.30
2018-01-15T02:11:34.159Z,4.37
2018-01-15T02:14:35.171Z,4.53
2018-01-15T02:17:36.288Z,4.53
2018-01-15T02:20:37.251Z,4.70
2018-01-15T02:23:38.274Z,4.83
2018-01-15T02:26:39.251Z,4.53
2018-01-15T02:29:40.255Z,4.77
2018-01-15T02:32:41.279Z,4.67
2018-01-15T02:35:42.279Z,4.63
2018-01-15T02:38:43.203Z,4.50
2018-01-15T02:41:44.211Z,4.50
2018-01-15T02:44:45.151Z,4.90
2018-01-15T02:47:46.161Z,4.30
2018-01-15T02:50:47.123Z,4.37
2018-01-15T02:53:48.124Z,4.40
2018-01-15T02:56:49.067Z,4.70
2018-01-15T02:59:50.058Z,4.50
2018-01-15T03:02:51.058Z,4.60
2018-01-15T03:05:51.991Z,4.50
2018-01-15T03:08:53.006Z,4.60
2018-01-15T03:11:54.049Z,4.77
2018-01-15T03:14:55.039Z,3.73
2018-01-15T03:17:56.025Z,4.27
2018-01-15T03:20:56.979Z,4.87
2018-01-15T03:23:57.966Z,4.67
2018-01-15T03:26:58.999Z,4.10
2018-01-15T03:29:59.987Z,4.60
2018-01-15T03:33:01.023Z,4.40
2018-01-15T03:36:02.015Z,4.20
2018-01-15T03:39:03.098Z,4.03
2018-01-15T03:42:04.195Z,4.37
2018-01-15T03:45:05.139Z,4.23
2018-01-15T03:48:06.088Z,4.60
2018-01-15T03:51:07.074Z,4.30
2018-01-15T03:54:08.095Z,4.50
2018-01-15T03:57:09.103Z,4.43
2018-01-15T04:00:10.253Z,4.53
2018-01-15T04:03:11.202Z,4.30
2018-01-15T04:06:12.207Z,4.20
2018-01-15T04:09:13.223Z,4.50
2018-01-15T04:12:14.221Z,4.27
2018-01-15T04:15:15.503Z,3.97
2018-01-15T04:18:16.456Z,3.93
2018-01-15T04:21:17.492Z,4.30
2018-01-15T04:24:18.474Z,4.40
2018-01-15T04:27:19.412Z,4.53
2018-01-15T04:30:21.423Z,4.43
2018-01-15T04:33:22.361Z,4.30
2018-01-15T04:36:23.918Z,3.97
2018-01-15T04:39:24.923Z,4.10
2018-01-15T04:42:25.930Z,4.17
2018-01-15T04:45:27.138Z,4.03
2018-01-15T04:48:28.080Z,4.10
2018-01-15T04:51:29.042Z,4.23
2018-01-15T04:54:30.009Z,4.10
2018-01-15T04:57:30.974Z,4.00
2018-01-15T05:00:32.342Z,4.30
2018-01-15T05:03:33.293Z,4.10
2018-01-15T05:06:34.339Z,4.13
2018-01-15T05:09:35.342Z,3.80
2018-01-15T05:12:36.323Z,4.00
2018-01-15T05:15:37.279Z,4.20
2018-01-15T05:18:38.244Z,3.77
2018-01-15T05:21:39.184Z,3.77
2018-01-15T05:24:40.170Z,4.07
2018-01-15T05:27:41.115Z,3.73
2018-01-15T05:30:42.098Z,3.67
2018-01-15T05:33:43.034Z,3.93
2018-01-15T05:36:44.043Z,3.67
2018-01-15T05:39:44.944Z,3.67
2018-01-15T05:42:46.132Z,3.75
2018-01-15T05:45:47.066Z,3.67
2018-01-15T05:48:48.011Z,3.60
2018-01-15T05:51:49.014Z,3.50
2018-01-15T05:54:50.027Z,3.80
2018-01-15T05:57:51.063Z,3.43
2018-01-15T06:00:52.043Z,3.63
2018-01-15T06:03:53.118Z,3.67
2018-01-15T06:06:54.082Z,3.50
2018-01-15T06:09:55.119Z,3.47
2018-01-15T06:12:56.082Z,3.90
2018-01-15T06:15:57.087Z,3.27
2018-01-15T06:18:58.415Z,3.80
2018-01-15T06:21:59.418Z,3.40
2018-01-15T06:25:00.429Z,3.10
2018-01-15T06:28:01.407Z,3.47
2018-01-15T06:31:02.307Z,3.47
2018-01-15T06:34:03.237Z,3.30
2018-01-15T06:37:04.160Z,3.37
2018-01-15T06:40:05.095Z,3.53
2018-01-15T06:43:06.210Z,3.60
2018-01-15T06:46:07.104Z,3.30
2018-01-15T06:49:08.037Z,3.60
2018-01-15T06:52:08.952Z,3.10
2018-01-15T06:55:09.921Z,3.30
2018-01-15T06:58:10.859Z,3.60
2018-01-15T07:01:11.765Z,3.70
2018-01-15T07:04:12.711Z,3.50
2018-01-15T07:07:13.606Z,3.20
2018-01-15T07:10:14.539Z,3.40
2018-01-15T07:13:15.438Z,3.40
2018-01-15T07:16:16.604Z,3.40
2018-01-15T07:19:17.502Z,3.30
2018-01-15T07:22:18.427Z,3.20
2018-01-15T07:25:19.530Z,3.70
2018-01-15T07:28:20.459Z,3.40
2018-01-15T07:31:21.407Z,3.10
2018-01-15T07:34:22.319Z,2.90
2018-01-15T07:37:23.246Z,3.47
2018-01-15T07:40:24.159Z,3.20
2018-01-15T07:43:25.100Z,3.07
2018-01-15T07:46:26.008Z,3.33
2018-01-15T07:49:26.939Z,3.27
2018-01-15T07:52:27.862Z,3.23
2018-01-15T07:55:28.798Z,3.30
2018-01-15T07:58:29.711Z,3.63
2018-01-15T08:01:30.627Z,2.83
2018-01-15T08:04:31.567Z,3.20
2018-01-15T08:07:32.483Z,3.33
2018-01-15T08:10:33.423Z,3.23
2018-01-15T08:13:34.331Z,3.63
2018-01-15T08:16:35.257Z,3.00
2018-01-15T08:19:36.167Z,3.43
2018-01-15T08:22:37.079Z,3.30
2018-01-15T08:25:37.982Z,3.37
2018-01-15T08:28:38.911Z,3.17
2018-01-15T08:31:39.823Z,3.23
2018-01-15T08:34:40.786Z,2.93
2018-01-15T08:37:41.791Z,3.20
2018-01-15T08:40:42.699Z,3.20
2018-01-15T08:43:43.634Z,3.17
2018-01-15T08:46:44.550Z,3.17
2018-01-15T08:49:45.678Z,3.23
2018-01-15T08:52:46.578Z,3.17
2018-01-15T08:55:47.827Z,3.10
2018-01-15T08:58:48.715Z,3.07
2018-01-15T09:01:49.655Z,3.27
2018-01-15T09:04:50.551Z,3.20
2018-01-15T09:07:51.479Z,3.20
2018-01-15T09:10:52.415Z,3.43
2018-01-15T09:13:53.383Z,3.23
2018-01-15T09:16:54.643Z,2.87
2018-01-15T09:19:55.554Z,2.77
2018-01-15T09:22:56.619Z,2.80
2018-01-15T09:25:57.512Z,3.10
2018-01-15T09:28:58.459Z,2.90
2018-01-15T09:31:59.352Z,3.10
2018-01-15T09:35:00.482Z,2.90
2018-01-15T09:38:01.379Z,3.03
2018-01-15T09:41:02.302Z,3.13
2018-01-15T09:44:03.194Z,3.00
2018-01-15T09:47:04.132Z,2.97
2018-01-15T09:50:05.047Z,3.07
2018-01-15T09:53:05.983Z,2.80
2018-01-15T09:56:06.891Z,2.70
2018-01-15T09:59:07.859Z,3.33
2018-01-15T10:02:08.755Z,3.20
2018-01-15T10:05:09.803Z,3.20
2018-01-15T10:08:10.714Z,3.00
2018-01-15T10:11:11.650Z,3.00
2018-01-15T10:14:12.570Z,3.07
2018-01-15T10:17:14.127Z,2.90
2018-01-15T10:20:15.046Z,2.90
2018-01-15T10:23:15.948Z,3.17
2018-01-15T10:26:16.920Z,2.97
2018-01-15T10:29:17.815Z,3.00
2018-01-15T10:32:19.007Z,3.00
2018-01-15T10:35:19.989Z,3.13
2018-01-15T10:38:20.886Z,2.83
2018-01-15T10:41:22.075Z,3.23
2018-01-15T10:44:22.995Z,2.90
2018-01-15T10:47:23.959Z,2.57
2018-01-15T10:50:24.867Z,2.80
2018-01-15T10:53:25.843Z,2.93
2018-01-15T10:56:26.759Z,2.77
2018-01-15T10:59:27.672Z,2.87
2018-01-15T11:02:28.634Z,3.10
2018-01-15T11:05:29.531Z,2.80
2018-01-15T11:08:30.490Z,2.60
2018-01-15T11:11:32.468Z,3.10
2018-01-15T11:14:33.383Z,3.17
2018-01-15T11:17:34.416Z,2.70
2018-01-15T11:20:35.331Z,2.80
2018-01-15T11:23:36.295Z,3.00
2018-01-15T11:26:37.199Z,2.83
2018-01-15T11:29:38.150Z,2.90
2018-01-15T11:32:39.054Z,2.90
2018-01-15T11:35:40.485Z,3.30
2018-01-15T11:38:41.386Z,2.90
2018-01-15T11:41:42.492Z,2.87
2018-01-15T11:44:43.391Z,3.10
2018-01-15T11:47:44.330Z,3.17
2018-01-15T11:50:45.426Z,2.70
2018-01-15T11:53:46.362Z,3.27
2018-01-15T11:56:47.258Z,3.03
2018-01-15T11:59:48.203Z,2.80
2018-01-15T12:02:49.094Z,2.83
2018-01-15T12:05:50.207Z,3.10
2018-01-15T12:08:51.141Z,2.80
2018-01-15T12:11:52.059Z,2.83
2018-01-15T12:14:52.947Z,2.70
2018-01-15T12:17:53.907Z,2.70
2018-01-15T12:20:54.820Z,2.73
2018-01-15T12:23:55.767Z,2.70
2018-01-15T12:26:56.679Z,2.77
2018-01-15T12:29:57.623Z,2.80
2018-01-15T12:32:58.559Z,2.77
2018-01-15T12:36:00.374Z,2.87
2018-01-15T12:39:01.326Z,2.50
2018-01-15T12:42:02.253Z,2.90
2018-01-15T12:45:03.175Z,2.83
2018-01-15T12:48:04.114Z,2.53
2018-01-15T12:51:05.017Z,2.93
2018-01-15T12:54:05.975Z,2.60
2018-01-15T12:57:06.915Z,2.80
2018-01-15T13:00:07.801Z,3.00
2018-01-15T13:03:08.782Z,2.80
2018-01-15T13:06:09.692Z,2.83
2018-01-15T13:09:10.639Z,2.70
2018-01-15T13:12:11.581Z,3.07
2018-01-15T13:15:12.483Z,2.47
2018-01-15T13:18:13.435Z,2.97
2018-01-15T13:21:14.367Z,3.00
2018-01-15T13:24:15.635Z,3.10
2018-01-15T13:27:16.547Z,2.80
2018-01-15T13:30:17.711Z,3.10
2018-01-15T13:33:18.628Z,3.17
2018-01-15T13:36:19.575Z,3.13
2018-01-15T13:39:20.527Z,3.00
2018-01-15T13:42:21.430Z,2.60
2018-01-15T13:45:22.379Z,2.97
2018-01-15T13:48:23.352Z,2.80
2018-01-15T13:51:24.266Z,2.50
2018-01-15T13:54:25.210Z,2.73
2018-01-15T13:57:26.112Z,2.90
2018-01-15T14:00:27.111Z,2.90
2018-01-15T14:03:28.052Z,2.47
2018-01-15T14:06:28.994Z,2.63
2018-01-15T14:09:30.059Z,2.70
2018-01-15T14:12:30.967Z,2.80
2018-01-15T14:15:31.931Z,2.47
2018-01-15T14:18:33.888Z,2.90
2018-01-15T14:21:34.838Z,2.40
2018-01-15T14:24:35.795Z,2.70
2018-01-15T14:27:36.682Z,2.60
2018-01-15T14:30:37.623Z,2.73
2018-01-15T14:33:38.691Z,2.80
2018-01-15T14:36:39.604Z,2.57
2018-01-15T14:39:40.850Z,2.60
2018-01-15T14:42:41.760Z,2.37
2018-01-15T14:45:42.682Z,2.70
2018-01-15T14:48:43.582Z,3.10
2018-01-15T14:51:44.515Z,2.50
2018-01-15T14:54:45.530Z,2.70
2018-01-15T14:57:46.439Z,2.97
2018-01-15T15:00:47.376Z,2.60
2018-01-15T15:03:48.272Z,2.20
2018-01-15T15:06:49.231Z,2.57
2018-01-15T15:09:50.268Z,2.87
2018-01-15T15:12:51.173Z,2.50
2018-01-15T15:15:52.099Z,2.67
2018-01-15T15:18:53.183Z,2.80
2018-01-15T15:21:54.100Z,2.83
2018-01-15T15:24:55.031Z,3.00
2018-01-15T15:27:55.944Z,2.80
2018-01-15T15:30:56.874Z,2.50
2018-01-15T15:33:57.801Z,2.70
2018-01-15T15:36:58.730Z,2.70
2018-01-15T15:39:59.640Z,2.80
2018-01-15T15:43:01.658Z,3.00
2018-01-15T15:46:02.584Z,2.47
2018-01-15T15:49:03.523Z,3.03
2018-01-15T15:52:04.438Z,2.40
2018-01-15T15:55:05.368Z,3.00
2018-01-15T15:58:06.262Z,2.70
2018-01-15T16:01:07.191Z,2.50
2018-01-15T16:04:08.094Z,2.60
2018-01-15T16:07:09.018Z,2.67
2018-01-15T16:10:09.923Z,3.10
2018-01-15T16:13:10.871Z,2.73
2018-01-15T16:16:11.770Z,2.67
2018-01-15T16:19:12.707Z,2.80
2018-01-15T16:22:13.625Z,2.63
2018-01-15T16:25:15.855Z,2.60
2018-01-15T16:28:16.794Z,2.53
2018-01-15T16:31:17.720Z,2.80
2018-01-15T16:34:18.659Z,2.60
2018-01-15T16:37:19.592Z,2.73
2018-01-15T16:40:20.518Z,2.83
2018-01-15T16:43:21.447Z,2.87
2018-01-15T16:46:22.372Z,2.50
2018-01-15T16:49:23.279Z,2.87
2018-01-15T16:52:24.243Z,2.33
2018-01-15T16:55:25.188Z,2.40
2018-01-15T16:58:26.204Z,3.07
2018-01-15T17:01:27.142Z,2.73
2018-01-15T17:04:28.151Z,2.37
2018-01-15T17:07:29.092Z,2.70
2018-01-15T17:10:30.024Z,2.60
2018-01-15T17:13:31.570Z,2.60
2018-01-15T17:16:32.507Z,2.40
2018-01-15T17:19:33.415Z,2.50
2018-01-15T17:22:34.559Z,2.60
2018-01-15T17:25:35.511Z,2.40
2018-01-15T17:28:36.459Z,2.30
2018-01-15T17:31:37.363Z,2.50
2018-01-15T17:34:38.331Z,2.60
2018-01-15T17:37:40.018Z,2.90
2018-01-15T17:40:40.971Z,2.50
2018-01-15T17:43:41.883Z,2.50
2018-01-15T17:46:42.828Z,2.43
2018-01-15T17:49:43.735Z,2.60
2018-01-15T17:52:44.671Z,2.33
2018-01-15T17:55:45.652Z,2.37
2018-01-15T17:58:46.660Z,2.27
2018-01-15T18:01:47.567Z,2.10
2018-01-15T18:04:48.507Z,2.30
2018-01-15T18:07:49.426Z,2.57
2018-01-15T18:10:50.363Z,2.30
2018-01-15T18:13:51.279Z,2.20
2018-01-15T18:16:52.223Z,2.37
2018-01-15T18:19:53.114Z,2.23
2018-01-15T18:22:54.063Z,2.63
2018-01-15T18:25:54.954Z,2.30
2018-01-15T18:28:55.929Z,2.30
2018-01-15T18:31:56.867Z,2.47
2018-01-15T18:34:57.767Z,2.60
2018-01-15T18:37:58.699Z,2.40
2018-01-15T18:40:59.679Z,2.90
2018-01-15T18:44:00.602Z,2.90
2018-01-15T18:47:01.554Z,2.33
2018-01-15T18:50:02.515Z,2.60
2018-01-15T18:53:03.436Z,2.33
2018-01-15T18:56:04.570Z,2.58
2018-01-15T18:59:05.570Z,2.50
2018-01-15T19:02:06.510Z,2.60
2018-01-15T19:05:07.525Z,2.33
2018-01-15T19:08:08.455Z,2.50
2018-01-15T19:11:09.595Z,2.37
2018-01-15T19:14:10.602Z,2.40
2018-01-15T19:17:11.629Z,2.20
2018-01-15T19:20:12.750Z,2.30
2018-01-15T19:23:13.739Z,2.43
2018-01-15T19:26:15.811Z,2.20
2018-01-15T19:29:16.879Z,2.30
2018-01-15T19:32:17.950Z,2.40
2018-01-15T19:35:19.014Z,2.17
2018-01-15T19:38:20.027Z,2.30
2018-01-15T19:41:21.078Z,2.30
2018-01-15T19:44:26.611Z,2.23
2018-01-15T19:48:31.199Z,2.20
2018-01-15T19:52:36.454Z,2.30
2018-01-15T19:56:40.931Z,2.00
2018-01-15T20:00:46.418Z,2.20
2018-01-15T20:04:52.083Z,1.93
2018-01-15T20:08:56.642Z,1.87
2018-01-15T20:11:57.603Z,2.50
2018-01-15T20:14:58.538Z,1.97
2018-01-15T20:17:59.739Z,2.33
2018-01-15T20:21:00.664Z,2.20
2018-01-15T20:24:01.599Z,2.30
2018-01-15T20:27:02.636Z,2.43
2018-01-15T20:30:03.583Z,1.97
2018-01-15T20:33:04.492Z,2.07
2018-01-15T20:36:05.403Z,2.10
2018-01-15T20:39:06.348Z,2.07
2018-01-15T20:42:07.299Z,2.20
2018-01-15T20:45:08.575Z,1.90
2018-01-15T20:48:09.467Z,2.27
2018-01-15T20:51:10.399Z,1.80
2018-01-15T20:54:11.312Z,1.93
2018-01-15T20:57:12.226Z,1.80
2018-01-15T21:00:13.138Z,2.03
2018-01-15T21:03:14.267Z,2.13
2018-01-15T21:06:15.174Z,2.13
2018-01-15T21:09:16.323Z,1.90
2018-01-15T21:12:17.321Z,1.93
2018-01-15T21:15:18.242Z,1.73
2018-01-15T21:18:19.154Z,2.07
2018-01-15T21:21:20.075Z,1.77
2018-01-15T21:24:20.983Z,1.70
2018-01-15T21:27:21.918Z,1.60
2018-01-15T21:30:23.072Z,1.87
2018-01-15T21:33:24.070Z,1.97
2018-01-15T21:36:25.354Z,1.80
2018-01-15T21:39:26.335Z,1.70
2018-01-15T21:42:27.286Z,1.70
2018-01-15T21:45:28.198Z,1.73
2018-01-15T21:48:29.785Z,1.83
2018-01-15T21:51:30.799Z,1.57
2018-01-15T21:54:31.828Z,1.70
2018-01-15T21:57:32.867Z,1.83
2018-01-15T22:00:33.871Z,1.60
2018-01-15T22:03:34.819Z,1.50
2018-01-15T22:06:35.787Z,1.40
2018-01-15T22:09:36.734Z,1.80
2018-01-15T22:12:37.731Z,1.90
2018-01-15T22:15:38.704Z,1.80
2018-01-15T22:18:39.688Z,1.50
2018-01-15T22:21:41.042Z,1.80
2018-01-15T22:24:42.011Z,1.63
2018-01-15T22:27:43.014Z,1.60
2018-01-15T22:30:43.992Z,1.60
2018-01-15T22:33:45.399Z,1.60
2018-01-15T22:36:46.371Z,1.40
2018-01-15T22:39:47.333Z,1.50
2018-01-15T22:42:48.394Z,1.60
2018-01-15T22:45:49.714Z,1.40
2018-01-15T22:48:51.057Z,1.40
2018-01-15T22:51:52.124Z,1.60
2018-01-15T22:54:53.135Z,1.43
2018-01-15T22:57:54.095Z,1.73
2018-01-15T23:00:55.086Z,1.50
2018-01-15T23:03:56.057Z,1.30
2018-01-15T23:06:57.056Z,1.03
2018-01-15T23:09:57.991Z,1.33
2018-01-15T23:12:58.987Z,1.23
2018-01-15T23:15:59.941Z,1.50
2018-01-15T23:19:00.955Z,1.27
2018-01-15T23:22:01.890Z,1.40
2018-01-15T23:25:02.883Z,1.47
2018-01-15T23:28:03.827Z,1.50
2018-01-15T23:31:04.871Z,1.20
2018-01-15T23:34:05.778Z,1.20
2018-01-15T23:37:06.776Z,1.40
2018-01-15T23:40:07.742Z,1.23
2018-01-15T23:43:08.731Z,1.10
2018-01-15T23:46:09.852Z,1.20
2018-01-15T23:49:10.771Z,1.30
2018-01-15T23:52:11.751Z,1.27
2018-01-15T23:55:12.706Z,1.30
2018-01-15T23:58:13.698Z,1.10
